Time;durP1;ratioP1;P1;durP2;ratioP2;P2;SDS_P1;SDS_P2;PMS_P1;PMS_P2;Temp;Humidity;BMP_temperature;BMP_pressure;BME280_temperature;BME280_humidity;BME280_pressure;Samples;Min_cycle;Max_cycle;Signal;HPM_P1;HPM_P2
2022/06/29 00:00:15;;;;;;;1.47;0.90;;;18.80;92.70;;;;;;4992941;28;20488;-79
2022/06/29 00:02:43;;;;;;;1.50;1.00;;;18.80;93.10;;;;;;4993955;28;20476;-79
2022/06/29 00:05:13;;;;;;;1.40;0.90;;;18.80;92.50;;;;;;4993590;28;20484;-79
2022/06/29 00:07:40;;;;;;;1.50;0.90;;;18.80;92.60;;;;;;4998072;28;20484;-79
2022/06/29 00:10:08;;;;;;;1.43;0.90;;;18.80;92.90;;;;;;4993812;28;21078;-79
2022/06/29 00:12:35;;;;;;;1.47;0.90;;;18.70;92.20;;;;;;5000905;28;20491;-80
2022/06/29 00:15:03;;;;;;;1.40;0.90;;;18.70;93.10;;;;;;4994592;28;20468;-79
2022/06/29 00:17:33;;;;;;;1.50;0.90;;;18.70;93.70;;;;;;4987729;28;20812;-78
2022/06/29 00:20:00;;;;;;;1.43;0.90;;;18.70;93.70;;;;;;4998682;28;20480;-80
2022/06/29 00:22:28;;;;;;;1.43;0.90;;;18.60;93.50;;;;;;4995837;28;20471;-78
2022/06/29 00:24:55;;;;;;;1.50;1.00;;;18.60;94.80;;;;;;4990635;28;20958;-79
2022/06/29 00:27:23;;;;;;;1.47;0.90;;;18.60;94.20;;;;;;4993365;28;20612;-80
2022/06/29 00:29:50;;;;;;;1.50;1.00;;;18.50;94.40;;;;;;4987063;28;20497;-79
2022/06/29 00:32:18;;;;;;;1.70;1.33;;;18.50;94.80;;;;;;4988884;28;20461;-80
2022/06/29 00:34:46;;;;;;;1.40;0.90;;;18.50;95.10;;;;;;4989475;28;20496;-78
2022/06/29 00:37:13;;;;;;;1.50;0.90;;;18.40;96.00;;;;;;4989403;28;20490;-80
2022/06/29 00:39:41;;;;;;;1.43;1.00;;;18.40;96.30;;;;;;4994097;28;20527;-79
2022/06/29 00:42:08;;;;;;;1.40;1.00;;;18.40;96.50;;;;;;4993651;28;20544;-79
2022/06/29 00:44:35;;;;;;;1.47;1.00;;;18.40;96.40;;;;;;4998643;28;20946;-78
2022/06/29 00:47:04;;;;;;;1.47;1.00;;;18.40;96.50;;;;;;4988788;28;20485;-79
2022/06/29 00:49:32;;;;;;;1.50;0.90;;;18.30;96.00;;;;;;4991899;28;20953;-81
2022/06/29 00:52:06;;;;;;;1.43;0.90;;;18.30;96.00;;;;;;4991977;28;21052;-78
2022/06/29 00:54:37;;;;;;;1.50;0.90;;;18.30;96.20;;;;;;5000090;28;20464;-81
2022/06/29 00:57:08;;;;;;;1.50;0.90;;;18.30;97.30;;;;;;4995576;28;21017;-79
2022/06/29 00:59:42;;;;;;;1.47;1.00;;;18.20;96.90;;;;;;4994921;28;20579;-79
2022/06/29 01:02:09;;;;;;;1.47;0.90;;;18.20;96.90;;;;;;4995243;28;20851;-79
2022/06/29 01:04:36;;;;;;;1.50;0.90;;;18.20;97.00;;;;;;4995067;28;20457;-79
2022/06/29 01:07:05;;;;;;;1.40;0.90;;;18.20;96.00;;;;;;4996323;28;20480;-79
2022/06/29 01:09:32;;;;;;;1.50;1.00;;;18.20;97.00;;;;;;5002129;28;20453;-79
2022/06/29 01:11:59;;;;;;;1.50;0.97;;;18.20;96.40;;;;;;4993758;28;20483;-79
2022/06/29 01:14:27;;;;;;;1.50;0.90;;;18.20;97.10;;;;;;5002438;28;20958;-78
2022/06/29 01:16:55;;;;;;;1.50;1.00;;;18.20;97.80;;;;;;4995598;28;20508;-79
2022/06/29 01:19:22;;;;;;;1.50;1.00;;;18.20;97.00;;;;;;4994493;28;20589;-79
2022/06/29 01:21:51;;;;;;;1.50;1.00;;;18.10;96.60;;;;;;4992957;28;20506;-79
2022/06/29 01:24:20;;;;;;;1.50;1.00;;;18.10;97.00;;;;;;5002701;28;20468;-78
2022/06/29 01:26:47;;;;;;;1.50;0.90;;;18.10;97.70;;;;;;4999685;28;20507;-80
2022/06/29 01:29:14;;;;;;;1.47;0.90;;;18.00;97.70;;;;;;4996213;28;20544;-80
2022/06/29 01:31:41;;;;;;;1.40;0.90;;;18.00;97.10;;;;;;4991506;28;20484;-80
2022/06/29 01:34:08;;;;;;;1.47;1.00;;;18.00;97.70;;;;;;5003796;28;20473;-80
2022/06/29 01:36:35;;;;;;;1.50;1.00;;;17.90;98.20;;;;;;4994892;28;20702;-80
2022/06/29 01:39:02;;;;;;;1.43;0.90;;;17.90;98.20;;;;;;4991683;28;20475;-80
2022/06/29 01:41:30;;;;;;;1.50;0.90;;;17.80;97.70;;;;;;4988080;28;20615;-79
2022/06/29 01:43:57;;;;;;;1.47;0.90;;;17.80;98.20;;;;;;5003735;28;20837;-80
2022/06/29 01:46:24;;;;;;;1.50;1.00;;;17.70;98.20;;;;;;4987791;28;20744;-80
2022/06/29 01:48:50;;;;;;;1.43;0.90;;;17.70;98.20;;;;;;4983242;28;20489;-80
2022/06/29 01:51:17;;;;;;;1.43;0.90;;;17.70;98.20;;;;;;4977229;28;20495;-80
2022/06/29 01:53:44;;;;;;;1.47;0.90;;;17.70;98.20;;;;;;4998086;28;20544;-80
2022/06/29 01:56:11;;;;;;;1.50;1.00;;;17.60;98.20;;;;;;5012019;23;20547;-78
2022/06/29 01:58:39;;;;;;;1.47;0.90;;;17.60;98.20;;;;;;4982185;28;20983;-78
2022/06/29 02:01:06;;;;;;;1.43;0.90;;;17.60;98.20;;;;;;4977657;28;20497;-78
2022/06/29 02:03:33;;;;;;;1.47;0.90;;;17.60;98.20;;;;;;5002907;28;20480;-78
2022/06/29 02:06:00;;;;;;;1.50;0.90;;;17.60;98.20;;;;;;4988324;28;20472;-78
2022/06/29 02:08:26;;;;;;;1.50;0.90;;;17.50;98.20;;;;;;4980453;28;20473;-78
2022/06/29 02:10:54;;;;;;;1.50;0.90;;;17.50;98.20;;;;;;4974860;28;20465;-79
2022/06/29 02:13:21;;;;;;;1.50;1.00;;;17.40;98.20;;;;;;4989592;28;20479;-78
2022/06/29 02:15:49;;;;;;;1.50;1.00;;;17.40;98.20;;;;;;4990417;28;20465;-78
2022/06/29 02:18:16;;;;;;;1.50;1.00;;;17.40;98.20;;;;;;4984367;28;20496;-78
2022/06/29 02:20:43;;;;;;;1.50;0.90;;;17.40;98.20;;;;;;4987220;28;20484;-79
2022/06/29 02:23:10;;;;;;;1.40;0.90;;;17.30;98.20;;;;;;4983989;28;20486;-78
2022/06/29 02:25:36;;;;;;;1.43;1.00;;;17.30;98.20;;;;;;4989359;28;20468;-78
2022/06/29 02:28:04;;;;;;;1.50;0.90;;;17.30;98.20;;;;;;4977185;28;20591;-78
2022/06/29 02:36:02;;;;;;;1.40;0.90;;;17.30;98.20;;;;;;4980061;28;20461;-79
2022/06/29 02:38:29;;;;;;;1.50;1.00;;;17.30;98.20;;;;;;4987000;28;20461;-77
2022/06/29 02:40:55;;;;;;;1.50;0.90;;;17.30;98.20;;;;;;4985578;28;20548;-79
2022/06/29 02:43:22;;;;;;;1.50;0.90;;;17.30;98.20;;;;;;4988101;28;20472;-78
2022/06/29 02:45:49;;;;;;;1.50;1.00;;;17.30;98.20;;;;;;4980731;28;20949;-77
2022/06/29 02:48:17;;;;;;;1.50;1.10;;;17.30;98.20;;;;;;4988832;28;20535;-77
2022/06/29 02:50:44;;;;;;;1.50;0.90;;;17.20;98.20;;;;;;4977221;28;20525;-77
2022/06/29 02:53:11;;;;;;;1.40;0.90;;;17.20;98.20;;;;;;4989066;28;20551;-78
2022/06/29 02:55:38;;;;;;;1.50;1.00;;;17.20;98.20;;;;;;4983911;28;20472;-78
2022/06/29 02:58:05;;;;;;;1.47;1.00;;;17.20;98.20;;;;;;4986090;28;20485;-81
2022/06/29 03:00:32;;;;;;;1.50;1.00;;;17.20;98.20;;;;;;4986816;28;20490;-80
2022/06/29 03:02:58;;;;;;;1.40;1.00;;;17.20;98.20;;;;;;4990672;28;20461;-80
2022/06/29 03:05:26;;;;;;;1.50;1.00;;;17.20;98.20;;;;;;4993209;28;20975;-82
2022/06/29 03:07:53;;;;;;;1.47;0.90;;;17.20;98.20;;;;;;4980167;28;20496;-79
2022/06/29 03:10:20;;;;;;;1.50;0.90;;;17.20;98.20;;;;;;4985393;28;20863;-78
2022/06/29 03:12:47;;;;;;;1.50;1.00;;;17.10;98.20;;;;;;4987852;28;20484;-78
2022/06/29 03:15:14;;;;;;;1.43;0.90;;;17.10;98.20;;;;;;4989275;28;20471;-78
2022/06/29 03:17:40;;;;;;;1.50;1.00;;;17.10;98.20;;;;;;4986787;28;20480;-78
2022/06/29 03:20:08;;;;;;;1.50;1.00;;;17.00;98.20;;;;;;4990647;28;20769;-80
2022/06/29 03:22:37;;;;;;;1.47;0.93;;;17.00;98.20;;;;;;4979830;28;20510;-81
2022/06/29 03:25:04;;;;;;;1.47;1.00;;;17.00;98.20;;;;;;4991647;28;20469;-80
2022/06/29 03:27:32;;;;;;;1.50;1.00;;;17.00;98.20;;;;;;4991053;28;20897;-80
2022/06/29 03:29:59;;;;;;;1.50;1.00;;;17.00;98.20;;;;;;4985924;28;20529;-80
2022/06/29 03:32:26;;;;;;;1.50;1.00;;;17.00;98.20;;;;;;4986796;28;20517;-77
2022/06/29 03:34:52;;;;;;;1.50;0.97;;;16.90;98.20;;;;;;4989443;28;20469;-80
2022/06/29 03:37:19;;;;;;;1.47;0.90;;;16.90;98.20;;;;;;4986500;28;20484;-80
2022/06/29 03:39:48;;;;;;;1.50;0.93;;;16.90;98.20;;;;;;4990965;28;20461;-81
2022/06/29 03:42:15;;;;;;;1.47;0.97;;;16.90;98.20;;;;;;4988101;28;20560;-80
2022/06/29 03:44:41;;;;;;;1.50;1.00;;;16.90;98.20;;;;;;4993895;28;20540;-80
2022/06/29 03:47:08;;;;;;;1.50;1.00;;;16.90;98.20;;;;;;4981967;28;20914;-79
2022/06/29 03:49:36;;;;;;;1.50;1.00;;;16.90;98.20;;;;;;4987927;28;20467;-80
2022/06/29 03:52:03;;;;;;;1.50;1.00;;;16.90;98.20;;;;;;4986069;28;20480;-81
2022/06/29 03:54:30;;;;;;;1.47;0.97;;;16.90;98.20;;;;;;4993190;28;20457;-80
2022/06/29 03:56:58;;;;;;;1.43;0.90;;;16.90;98.20;;;;;;4984094;28;20495;-81
2022/06/29 03:59:25;;;;;;;1.50;1.00;;;16.90;98.20;;;;;;4995623;28;20953;-80
2022/06/29 04:01:52;;;;;;;1.50;0.90;;;16.90;98.20;;;;;;4993817;28;20457;-79
2022/06/29 04:04:19;;;;;;;1.50;1.00;;;16.90;98.20;;;;;;4995816;28;20596;-81
2022/06/29 04:06:45;;;;;;;1.50;1.00;;;16.90;98.20;;;;;;4990062;28;21028;-78
2022/06/29 04:09:12;;;;;;;1.50;1.00;;;17.00;98.20;;;;;;4985762;28;20462;-79
2022/06/29 04:11:53;;;;;;;1.47;1.00;;;17.00;98.20;;;;;;4975561;28;20503;-78
2022/06/29 04:14:24;;;;;;;1.47;1.00;;;17.00;98.20;;;;;;4989012;28;20536;-79
2022/06/29 04:16:51;;;;;;;1.50;0.90;;;17.10;98.20;;;;;;4989493;28;21003;-80
2022/06/29 04:19:18;;;;;;;1.50;0.90;;;17.10;98.20;;;;;;5002114;28;20468;-82
2022/06/29 04:21:44;;;;;;;1.43;0.90;;;17.10;98.20;;;;;;4991340;28;20579;-81
2022/06/29 04:24:12;;;;;;;1.50;0.90;;;17.10;98.20;;;;;;4993906;28;20465;-82
2022/06/29 04:26:39;;;;;;;1.50;1.00;;;17.10;98.20;;;;;;4983217;28;20497;-82
2022/06/29 04:29:06;;;;;;;1.50;1.00;;;17.20;98.20;;;;;;4994534;28;20486;-79
2022/06/29 04:31:34;;;;;;;1.50;0.90;;;17.20;98.20;;;;;;4991076;28;20493;-82
2022/06/29 04:34:02;;;;;;;1.50;1.00;;;17.30;98.20;;;;;;4989886;28;20462;-82
2022/06/29 04:36:29;;;;;;;1.43;1.00;;;17.30;98.20;;;;;;4977012;28;20493;-80
2022/06/29 04:38:56;;;;;;;1.50;1.00;;;17.40;98.20;;;;;;5001919;28;20469;-81
2022/06/29 04:41:24;;;;;;;1.50;0.90;;;17.40;98.20;;;;;;4990820;28;20484;-81
2022/06/29 04:43:51;;;;;;;1.47;0.90;;;17.40;98.20;;;;;;4991981;28;20469;-85
2022/06/29 04:46:21;;;;;;;1.50;1.00;;;17.50;98.20;;;;;;4985681;28;20501;-85
2022/06/29 04:48:50;;;;;;;1.50;0.90;;;17.50;98.20;;;;;;4991029;28;20469;-81
2022/06/29 04:51:17;;;;;;;1.50;1.00;;;17.60;98.20;;;;;;4979813;28;20531;-84
2022/06/29 04:53:44;;;;;;;1.50;0.90;;;17.70;98.20;;;;;;5005863;28;20467;-86
2022/06/29 04:56:12;;;;;;;1.40;0.90;;;17.80;98.20;;;;;;4989689;28;20489;-83
2022/06/29 04:58:39;;;;;;;1.50;0.90;;;17.90;98.20;;;;;;4987122;28;20499;-85
2022/06/29 05:01:06;;;;;;;1.50;0.90;;;18.00;98.20;;;;;;4986078;28;20442;-82
2022/06/29 05:03:33;;;;;;;1.50;0.90;;;18.10;98.20;;;;;;5006852;28;21147;-80
2022/06/29 05:06:02;;;;;;;1.47;0.90;;;18.20;98.20;;;;;;4990144;28;20845;-84
2022/06/29 05:08:28;;;;;;;1.50;0.90;;;18.30;98.20;;;;;;4989378;28;20823;-85
2022/06/29 05:10:55;;;;;;;1.50;0.90;;;18.40;98.20;;;;;;4981392;28;20493;-86
2022/06/29 05:13:22;;;;;;;1.50;1.00;;;18.50;98.20;;;;;;4986582;28;20457;-84
2022/06/29 05:15:49;;;;;;;1.50;1.00;;;18.60;98.20;;;;;;4992573;28;20457;-83
2022/06/29 05:18:16;;;;;;;1.47;0.90;;;18.60;98.20;;;;;;4987945;28;20748;-84
2022/06/29 05:20:43;;;;;;;1.47;0.90;;;18.60;98.20;;;;;;4994614;28;20463;-82
2022/06/29 05:23:12;;;;;;;1.43;0.90;;;18.70;98.20;;;;;;4992052;28;20461;-81
2022/06/29 05:25:39;;;;;;;1.50;0.90;;;18.70;98.20;;;;;;4991966;28;20469;-83
2022/06/29 05:28:06;;;;;;;1.47;0.90;;;18.80;98.20;;;;;;4984855;28;20516;-83
2022/06/29 05:30:33;;;;;;;1.50;0.90;;;18.80;98.20;;;;;;4999558;28;20596;-84
2022/06/29 05:33:00;;;;;;;1.50;0.90;;;18.80;98.20;;;;;;4985807;28;20488;-85
2022/06/29 05:35:29;;;;;;;1.40;0.90;;;18.90;98.20;;;;;;4994673;28;20466;-84
2022/06/29 05:37:56;;;;;;;1.50;0.90;;;19.00;98.20;;;;;;4977398;28;20528;-81
2022/06/29 05:40:24;;;;;;;1.47;0.90;;;19.00;98.20;;;;;;4986123;28;20466;-83
2022/06/29 05:42:51;;;;;;;1.50;0.90;;;19.10;98.20;;;;;;4987542;28;20492;-83
2022/06/29 05:45:18;;;;;;;1.47;0.90;;;19.20;98.20;;;;;;4988100;28;20469;-82
2022/06/29 05:47:45;;;;;;;1.43;0.90;;;19.30;98.20;;;;;;4978625;28;20485;-84
2022/06/29 05:50:13;;;;;;;1.43;0.93;;;19.30;98.20;;;;;;4991369;28;20469;-83
2022/06/29 05:52:40;;;;;;;1.50;0.90;;;19.30;98.20;;;;;;4984835;28;20496;-84
2022/06/29 05:55:07;;;;;;;1.47;0.90;;;19.30;98.20;;;;;;4992667;28;20556;-83
2022/06/29 05:57:36;;;;;;;1.50;0.90;;;19.40;98.20;;;;;;4974113;28;20524;-83
2022/06/29 06:00:05;;;;;;;1.47;0.90;;;19.50;98.20;;;;;;4987989;28;20539;-82
2022/06/29 06:02:31;;;;;;;1.43;0.90;;;19.60;98.20;;;;;;4991353;28;20544;-83
2022/06/29 06:04:58;;;;;;;1.50;1.00;;;19.60;98.20;;;;;;4990895;28;20487;-82
2022/06/29 06:07:25;;;;;;;1.50;1.00;;;19.70;98.20;;;;;;4979337;28;20504;-82
2022/06/29 06:09:52;;;;;;;1.50;0.90;;;19.80;98.20;;;;;;4986613;28;20476;-84
2022/06/29 06:12:19;;;;;;;1.47;0.90;;;19.90;98.00;;;;;;4989161;28;20501;-82
2022/06/29 06:14:47;;;;;;;1.50;0.90;;;20.00;97.70;;;;;;4987551;28;20568;-83
2022/06/29 06:17:14;;;;;;;1.50;0.90;;;20.20;97.20;;;;;;4987106;28;20488;-82
2022/06/29 06:19:40;;;;;;;1.47;0.90;;;20.30;96.70;;;;;;4989831;28;20465;-80
2022/06/29 06:22:07;;;;;;;1.50;0.90;;;20.40;96.20;;;;;;4990045;28;20552;-81
2022/06/29 06:24:35;;;;;;;1.50;0.93;;;20.40;92.60;;;;;;4990191;28;20496;-81
2022/06/29 06:27:02;;;;;;;1.50;0.90;;;20.40;91.40;;;;;;4989848;28;20493;-81
2022/06/29 06:29:29;;;;;;;1.50;0.90;;;20.50;89.70;;;;;;4990972;28;20556;-80
2022/06/29 06:31:57;;;;;;;1.47;0.90;;;20.50;89.90;;;;;;4981125;28;20491;-80
2022/06/29 06:34:26;;;;;;;1.50;0.90;;;20.50;90.60;;;;;;4995479;28;20487;-82
2022/06/29 06:36:52;;;;;;;1.50;0.90;;;20.60;91.40;;;;;;4984877;28;20488;-81
2022/06/29 06:39:19;;;;;;;1.50;0.90;;;20.60;91.20;;;;;;4989113;28;20470;-81
2022/06/29 06:41:45;;;;;;;1.50;1.00;;;20.70;91.10;;;;;;4980554;28;20583;-80
2022/06/29 06:44:12;;;;;;;1.47;0.90;;;20.80;90.60;;;;;;4991980;28;20544;-80
2022/06/29 06:46:41;;;;;;;1.50;0.90;;;20.80;91.00;;;;;;4981880;28;20589;-80
2022/06/29 06:49:09;;;;;;;1.43;0.90;;;20.90;90.60;;;;;;4985859;28;20543;-81
2022/06/29 06:51:36;;;;;;;1.47;0.90;;;20.90;90.70;;;;;;4971610;28;20480;-81
2022/06/29 06:54:02;;;;;;;1.50;1.00;;;21.00;90.40;;;;;;4990728;28;20476;-80
2022/06/29 06:56:29;;;;;;;1.47;1.00;;;21.00;90.80;;;;;;4973222;28;20516;-81
2022/06/29 06:58:56;;;;;;;1.50;0.90;;;21.00;91.00;;;;;;4984760;28;20473;-80
2022/06/29 07:01:23;;;;;;;1.50;0.90;;;21.00;90.90;;;;;;4975155;28;21284;-81
2022/06/29 07:03:50;;;;;;;1.50;0.90;;;21.00;91.10;;;;;;4984025;28;20522;-81
2022/06/29 07:06:18;;;;;;;1.50;0.90;;;21.00;91.30;;;;;;4981163;28;21502;-81
2022/06/29 07:08:47;;;;;;;1.43;0.90;;;21.10;91.60;;;;;;4987980;28;21112;-81
2022/06/29 07:11:14;;;;;;;1.50;0.90;;;21.10;91.70;;;;;;4984010;28;20561;-81
2022/06/29 07:13:40;;;;;;;1.50;0.90;;;21.20;91.30;;;;;;4984047;28;20469;-81
2022/06/29 07:16:07;;;;;;;1.47;0.90;;;21.20;91.20;;;;;;4987808;28;20488;-81
2022/06/29 07:18:35;;;;;;;1.43;0.90;;;21.20;91.50;;;;;;4989336;28;20498;-81
2022/06/29 07:21:02;;;;;;;1.50;1.10;;;21.20;92.00;;;;;;4977319;28;20465;-81
2022/06/29 07:23:30;;;;;;;1.50;0.90;;;21.20;91.80;;;;;;4989186;28;20468;-81
2022/06/29 07:25:58;;;;;;;1.50;0.90;;;21.20;91.60;;;;;;4980233;28;20469;-81
2022/06/29 07:28:25;;;;;;;1.47;0.90;;;21.20;92.10;;;;;;4981459;28;20506;-82
2022/06/29 07:30:52;;;;;;;1.47;0.90;;;21.30;91.90;;;;;;4988555;28;20453;-78
2022/06/29 07:33:19;;;;;;;1.50;0.90;;;21.30;91.30;;;;;;4986874;28;20562;-80
2022/06/29 07:35:46;;;;;;;1.50;0.90;;;21.40;91.30;;;;;;4986348;28;20476;-81
2022/06/29 07:38:13;;;;;;;1.50;1.00;;;21.50;91.20;;;;;;4981901;28;20484;-80
2022/06/29 07:40:41;;;;;;;1.50;0.90;;;21.60;90.70;;;;;;4984488;28;20465;-81
2022/06/29 07:43:08;;;;;;;1.50;0.90;;;21.70;90.30;;;;;;4986259;28;20876;-80
2022/06/29 07:45:35;;;;;;;1.50;1.00;;;21.70;90.70;;;;;;4987332;28;20461;-81
2022/06/29 07:48:02;;;;;;;1.50;0.90;;;21.80;90.70;;;;;;4976912;28;20497;-78
2022/06/29 07:50:29;;;;;;;1.50;0.90;;;21.90;90.70;;;;;;4989229;28;20476;-82
2022/06/29 07:52:56;;;;;;;1.50;0.90;;;22.00;90.90;;;;;;4989357;28;20494;-81
2022/06/29 07:55:24;;;;;;;1.50;0.90;;;22.10;90.60;;;;;;4999722;28;20469;-82
2022/06/29 07:57:53;;;;;;;1.40;0.87;;;22.20;90.30;;;;;;5007119;23;20497;-84
2022/06/29 08:00:21;;;;;;;1.50;0.90;;;22.20;90.80;;;;;;4990614;28;20498;-81
2022/06/29 08:02:50;;;;;;;1.50;0.90;;;22.30;89.10;;;;;;4998846;28;20476;-83
2022/06/29 08:05:17;;;;;;;1.47;0.90;;;22.30;88.70;;;;;;4994179;28;20461;-80
2022/06/29 08:07:44;;;;;;;1.47;0.90;;;22.20;88.20;;;;;;4989438;28;20461;-84
2022/06/29 08:10:11;;;;;;;1.50;0.90;;;22.10;88.70;;;;;;4989360;28;20472;-82
2022/06/29 08:12:38;;;;;;;1.50;0.90;;;22.10;88.80;;;;;;4990816;28;20863;-80
2022/06/29 08:15:07;;;;;;;1.43;0.90;;;22.00;88.80;;;;;;4995399;28;20475;-80
2022/06/29 08:17:34;;;;;;;1.47;0.80;;;22.00;87.90;;;;;;4993396;28;20483;-83
2022/06/29 08:20:01;;;;;;;1.50;0.90;;;21.90;87.00;;;;;;4994705;28;20539;-83
2022/06/29 08:22:28;;;;;;;1.50;0.90;;;21.90;87.20;;;;;;4987963;28;20457;-84
2022/06/29 08:24:55;;;;;;;1.50;1.20;;;21.70;86.90;;;;;;4989050;28;20479;-86
2022/06/29 08:27:23;;;;;;;1.43;0.90;;;21.70;87.50;;;;;;4994987;28;20488;-82
2022/06/29 08:29:50;;;;;;;1.50;0.90;;;21.70;88.30;;;;;;4996415;28;20491;-82
2022/06/29 08:32:18;;;;;;;1.43;0.90;;;21.80;87.80;;;;;;4991874;28;20496;-83
2022/06/29 08:34:45;;;;;;;1.50;0.90;;;21.80;87.00;;;;;;4995178;28;20727;-84
2022/06/29 08:37:12;;;;;;;1.50;0.90;;;21.80;87.20;;;;;;4994852;28;20487;-81
2022/06/29 08:39:39;;;;;;;1.60;1.30;;;21.80;87.70;;;;;;4993349;28;20491;-81
2022/06/29 08:42:09;;;;;;;1.47;0.90;;;21.90;88.10;;;;;;4990910;28;20988;-83
2022/06/29 08:44:37;;;;;;;1.40;0.90;;;21.90;87.60;;;;;;4994911;28;20499;-84
2022/06/29 08:47:07;;;;;;;1.47;0.90;;;21.80;87.10;;;;;;4992714;28;20461;-84
2022/06/29 08:49:37;;;;;;;1.43;0.90;;;21.70;87.70;;;;;;4996401;28;20484;-84
2022/06/29 08:52:06;;;;;;;1.47;0.90;;;21.70;88.40;;;;;;4996136;28;20519;-81
2022/06/29 08:54:36;;;;;;;1.50;0.90;;;21.80;88.10;;;;;;4994929;28;20461;-81
2022/06/29 08:57:04;;;;;;;1.50;0.90;;;21.80;88.30;;;;;;4989876;28;20472;-84
2022/06/29 08:59:33;;;;;;;1.40;0.90;;;21.90;88.00;;;;;;4995997;28;20496;-84
2022/06/29 09:02:03;;;;;;;1.43;0.83;;;22.00;88.20;;;;;;4995734;28;20488;-84
2022/06/29 09:04:30;;;;;;;1.47;0.90;;;22.10;88.00;;;;;;4999130;28;20472;-82
2022/06/29 09:06:59;;;;;;;1.47;0.83;;;22.20;87.80;;;;;;4998013;28;20479;-83
2022/06/29 09:09:26;;;;;;;1.47;0.90;;;22.30;87.40;;;;;;4997844;28;20495;-82
2022/06/29 09:11:54;;;;;;;1.47;0.90;;;22.30;87.10;;;;;;4995261;28;20771;-83
2022/06/29 09:14:23;;;;;;;1.50;0.90;;;22.30;86.50;;;;;;4998510;28;20669;-82
2022/06/29 09:16:55;;;;;;;1.50;0.90;;;22.40;86.30;;;;;;4997464;28;20902;-82
2022/06/29 09:19:24;;;;;;;1.43;0.87;;;22.40;86.30;;;;;;4996423;28;20481;-83
2022/06/29 09:21:53;;;;;;;1.50;0.90;;;22.40;86.40;;;;;;5000480;28;20507;-83
2022/06/29 09:24:23;;;;;;;1.47;0.90;;;22.40;86.40;;;;;;5004376;28;20485;-81
2022/06/29 09:26:51;;;;;;;1.47;0.80;;;22.50;85.80;;;;;;4998162;28;20861;-83
2022/06/29 09:29:23;;;;;;;1.43;0.90;;;22.50;86.30;;;;;;4999196;28;20524;-81
2022/06/29 09:32:11;;;;;;;1.43;0.90;;;22.50;85.90;;;;;;4994180;28;20583;-82
2022/06/29 09:34:39;;;;;;;1.47;0.90;;;22.60;85.50;;;;;;4994611;28;20969;-82
2022/06/29 09:37:08;;;;;;;1.50;0.90;;;22.60;85.00;;;;;;4994290;28;20555;-82
2022/06/29 09:39:37;;;;;;;1.47;0.83;;;22.70;85.30;;;;;;4988403;28;20489;-82
2022/06/29 09:42:06;;;;;;;1.50;0.90;;;22.60;85.10;;;;;;4990753;28;20465;-82
2022/06/29 09:44:33;;;;;;;1.50;0.90;;;22.70;84.90;;;;;;4992936;28;20848;-82
2022/06/29 09:47:04;;;;;;;1.50;0.90;;;22.70;84.90;;;;;;4997910;28;20883;-82
2022/06/29 09:49:34;;;;;;;1.43;0.80;;;22.80;84.70;;;;;;4997846;28;20480;-81
2022/06/29 09:52:01;;;;;;;1.47;0.90;;;23.00;83.80;;;;;;4993296;28;20569;-83
2022/06/29 09:54:33;;;;;;;1.47;0.90;;;23.20;83.70;;;;;;4993394;28;20872;-83
2022/06/29 09:57:01;;;;;;;1.47;0.93;;;23.50;83.80;;;;;;4994572;28;20461;-83
2022/06/29 10:05:08;;;;;;;1.50;0.90;;;24.10;80.60;;;;;;4997009;28;20452;-85
2022/06/29 10:07:37;;;;;;;1.43;0.90;;;24.40;80.30;;;;;;4999082;28;20550;-86
2022/06/29 10:10:07;;;;;;;2.57;2.37;;;24.70;79.50;;;;;;4996121;28;20476;-82
2022/06/29 10:15:55;;;;;;;1.50;0.83;;;25.50;77.00;;;;;;4987581;28;20524;-82
2022/06/29 10:18:34;;;;;;;1.50;1.00;;;25.80;74.70;;;;;;4976634;28;20480;-82
2022/06/29 10:21:02;;;;;;;1.50;0.80;;;26.00;73.20;;;;;;4988160;28;20464;-82
2022/06/29 10:23:46;;;;;;;1.47;0.80;;;26.30;73.00;;;;;;5003284;28;20493;-82
2022/06/29 10:26:39;;;;;;;1.40;0.80;;;26.50;73.20;;;;;;4996379;28;20468;-84
2022/06/29 10:29:36;;;;;;;1.90;1.60;;;26.50;72.50;;;;;;5001363;28;20517;-81
2022/06/29 10:32:17;;;;;;;1.40;0.80;;;26.60;74.60;;;;;;4992655;28;20472;-81
2022/06/29 10:37:30;;;;;;;1.47;0.80;;;26.90;70.00;;;;;;4999603;28;20542;-82
2022/06/29 10:40:04;;;;;;;1.40;0.80;;;27.10;69.60;;;;;;4988386;28;21441;-81
2022/06/29 10:45:26;;;;;;;1.50;0.83;;;28.00;68.70;;;;;;4999484;28;20940;-83
2022/06/29 10:48:20;;;;;;;1.50;0.80;;;28.30;68.40;;;;;;4999029;28;20567;-84
2022/06/29 10:50:48;;;;;;;1.50;0.90;;;28.30;65.40;;;;;;4991285;28;20456;-82
2022/06/29 10:53:17;;;;;;;1.47;0.80;;;28.10;65.50;;;;;;4990456;28;20543;-83
2022/06/29 10:55:46;;;;;;;1.50;0.97;;;27.90;66.00;;;;;;4986072;28;20476;-82
2022/06/29 10:58:12;;;;;;;1.43;0.80;;;27.80;67.80;;;;;;4976079;28;20492;-83
2022/06/29 11:00:42;;;;;;;1.47;0.80;;;27.80;68.40;;;;;;4989970;28;20469;-83
2022/06/29 11:03:14;;;;;;;1.43;0.80;;;27.90;68.00;;;;;;4987149;28;20559;-83
2022/06/29 11:13:53;;;;;;;1.47;0.87;;;28.50;67.00;;;;;;4999481;28;20443;-82
2022/06/29 11:16:29;;;;;;;1.43;0.80;;;28.60;66.40;;;;;;4982583;28;21005;-83
2022/06/29 11:18:56;;;;;;;1.47;0.80;;;29.00;66.30;;;;;;5002368;28;20863;-83
2022/06/29 11:21:23;;;;;;;1.47;0.80;;;29.30;65.20;;;;;;4981718;28;20491;-83
2022/06/29 11:23:56;;;;;;;1.50;0.80;;;29.60;64.50;;;;;;4988830;28;20496;-85
2022/06/29 11:26:24;;;;;;;1.47;0.80;;;29.70;63.90;;;;;;4987405;28;20482;-83
2022/06/29 11:28:51;;;;;;;1.47;0.90;;;30.00;65.20;;;;;;4990744;28;20575;-83
2022/06/29 11:31:18;;;;;;;1.50;0.80;;;30.20;63.20;;;;;;4986086;28;21320;-82
2022/06/29 11:33:49;;;;;;;1.47;0.80;;;30.10;63.80;;;;;;4994473;28;20460;-83
2022/06/29 11:36:17;;;;;;;1.93;1.30;;;30.30;63.80;;;;;;4986184;28;20623;-83
2022/06/29 11:38:46;;;;;;;1.47;0.83;;;30.30;65.60;;;;;;5003010;28;20491;-83
2022/06/29 11:41:14;;;;;;;1.43;0.80;;;30.40;63.80;;;;;;4989625;28;20947;-85
2022/06/29 11:43:42;;;;;;;1.47;0.80;;;30.10;63.90;;;;;;4990028;28;20492;-82
2022/06/29 11:46:19;;;;;;;1.43;0.80;;;30.00;65.40;;;;;;4983206;28;20494;-82
2022/06/29 11:51:36;;;;;;;1.43;0.80;;;29.50;65.90;;;;;;4987727;28;20495;-85
2022/06/29 11:54:06;;;;;;;1.47;0.80;;;29.70;65.40;;;;;;4990155;28;21020;-84
2022/06/29 11:56:33;;;;;;;1.43;0.80;;;30.10;65.60;;;;;;4984826;28;20549;-83
2022/06/29 11:59:05;;;;;;;1.50;0.90;;;30.10;65.90;;;;;;4988783;28;20729;-83
2022/06/29 12:01:32;;;;;;;1.47;0.80;;;30.00;65.70;;;;;;4985660;28;20487;-84
2022/06/29 12:04:02;;;;;;;1.43;0.80;;;30.30;65.60;;;;;;4987789;28;20490;-87
2022/06/29 12:06:30;;;;;;;1.40;0.80;;;30.70;66.50;;;;;;4989567;28;20539;-87
2022/06/29 12:09:10;;;;;;;1.50;1.10;;;30.80;63.20;;;;;;4988009;28;20627;-82
2022/06/29 12:11:37;;;;;;;1.47;0.80;;;30.80;63.00;;;;;;4993848;28;20480;-83
2022/06/29 12:14:04;;;;;;;1.50;1.00;;;30.80;62.60;;;;;;4989234;28;20508;-83
2022/06/29 12:16:30;;;;;;;1.43;0.80;;;30.80;62.50;;;;;;4987930;28;20301;-82
2022/06/29 12:18:57;;;;;;;1.70;1.47;;;30.90;63.20;;;;;;5006734;28;20225;-81
2022/06/29 12:21:26;;;;;;;1.40;0.80;;;31.00;62.40;;;;;;4990433;28;20252;-83
2022/06/29 12:23:53;;;;;;;1.43;0.80;;;31.00;61.20;;;;;;4999067;28;20230;-83
2022/06/29 12:26:21;;;;;;;1.43;0.80;;;31.00;61.30;;;;;;4994368;28;20216;-80
2022/06/29 12:28:48;;;;;;;1.40;0.80;;;30.80;61.80;;;;;;4995644;28;20612;-82
2022/06/29 12:31:15;;;;;;;1.40;0.80;;;30.80;60.80;;;;;;4989767;28;20541;-83
2022/06/29 12:33:42;;;;;;;1.47;0.80;;;30.50;59.90;;;;;;5008587;28;20212;-86
2022/06/29 12:36:09;;;;;;;1.50;0.80;;;30.40;62.10;;;;;;4995328;28;20540;-80
2022/06/29 12:38:38;;;;;;;1.47;0.80;;;30.40;62.20;;;;;;4997586;28;20484;-83
2022/06/29 12:41:05;;;;;;;1.47;0.80;;;30.50;62.30;;;;;;4989614;28;20536;-84
2022/06/29 12:43:32;;;;;;;1.47;0.80;;;30.40;62.00;;;;;;4992379;28;20230;-81
2022/06/29 12:45:59;;;;;;;1.43;0.80;;;30.20;62.60;;;;;;4982143;28;20554;-87
2022/06/29 12:48:26;;;;;;;1.43;0.80;;;30.20;62.30;;;;;;5008424;28;20933;-84
2022/06/29 12:50:53;;;;;;;1.40;0.80;;;30.50;63.60;;;;;;4992994;28;20474;-85
2022/06/29 12:53:20;;;;;;;1.43;0.80;;;31.00;62.70;;;;;;4991595;28;20460;-84
2022/06/29 12:55:48;;;;;;;1.43;0.80;;;31.20;60.90;;;;;;4987354;28;20229;-85
2022/06/29 12:58:15;;;;;;;1.43;0.80;;;31.10;60.50;;;;;;5005536;28;20503;-83
2022/06/29 13:00:42;;;;;;;1.43;0.80;;;31.10;61.40;;;;;;4994516;28;20491;-81
2022/06/29 13:03:09;;;;;;;1.40;0.80;;;31.20;61.60;;;;;;4991497;28;20256;-81
2022/06/29 13:05:36;;;;;;;1.40;0.80;;;31.10;60.80;;;;;;4991805;28;20491;-80
2022/06/29 13:08:03;;;;;;;1.40;0.80;;;30.90;61.30;;;;;;4996807;28;20487;-81
2022/06/29 13:10:31;;;;;;;1.43;0.80;;;30.90;61.90;;;;;;4991264;28;20464;-85
2022/06/29 13:13:03;;;;;;;1.43;0.80;;;31.00;62.60;;;;;;4991528;28;20471;-83
2022/06/29 13:15:30;;;;;;;1.40;0.80;;;31.10;60.00;;;;;;4993297;28;20476;-82
2022/06/29 13:17:57;;;;;;;1.47;0.80;;;31.30;61.40;;;;;;4990401;28;20209;-83
2022/06/29 13:20:24;;;;;;;1.50;0.90;;;31.50;59.40;;;;;;4992014;28;20215;-84
2022/06/29 13:23:14;;;;;;;1.43;0.80;;;31.30;60.30;;;;;;5002233;28;20244;-86